createdAt,value
2022-07-29T00:01:30.915Z,19.78
2022-07-29T00:04:01.049Z,19.79
2022-07-29T00:06:30.224Z,19.75
2022-07-29T00:08:59.052Z,19.64
2022-07-29T00:11:27.867Z,19.66
2022-07-29T00:13:56.653Z,19.69
2022-07-29T00:16:25.539Z,19.73
2022-07-29T00:18:54.139Z,19.73
2022-07-29T00:21:23.143Z,19.81
2022-07-29T00:23:52.322Z,19.78
2022-07-29T00:26:20.936Z,19.81
2022-07-29T00:28:49.641Z,19.79
2022-07-29T00:31:18.607Z,19.80
2022-07-29T00:33:48.801Z,19.73
2022-07-29T00:36:17.531Z,19.70
2022-07-29T00:38:47.113Z,19.73
2022-07-29T00:41:19.254Z,19.70
2022-07-29T00:43:47.858Z,19.63
2022-07-29T00:46:16.662Z,19.61
2022-07-29T00:48:47.795Z,19.54
2022-07-29T00:51:16.784Z,19.39
2022-07-29T00:53:45.983Z,19.32
2022-07-29T00:56:14.755Z,19.35
2022-07-29T00:58:43.939Z,19.24
2022-07-29T01:01:12.738Z,19.21
2022-07-29T01:03:42.680Z,19.05
2022-07-29T01:06:14.848Z,18.96
2022-07-29T01:08:44.280Z,18.95
2022-07-29T01:11:13.527Z,18.88
2022-07-29T01:13:43.852Z,18.80
2022-07-29T01:16:34.285Z,18.89
2022-07-29T01:19:08.914Z,18.86
2022-07-29T01:21:52.972Z,18.81
2022-07-29T01:24:30.117Z,18.82
2022-07-29T01:27:10.474Z,18.97
2022-07-29T01:29:47.770Z,18.90
2022-07-29T01:32:28.751Z,18.78
2022-07-29T01:35:20.185Z,18.79
2022-07-29T01:38:03.037Z,19.00
2022-07-29T01:40:37.354Z,18.90
2022-07-29T01:43:17.877Z,18.94
2022-07-29T01:45:52.087Z,18.97
2022-07-29T01:48:29.553Z,18.97
2022-07-29T01:51:16.274Z,18.99
2022-07-29T01:53:48.014Z,19.03
2022-07-29T01:56:18.910Z,19.04
2022-07-29T01:58:49.228Z,19.01
2022-07-29T02:01:20.081Z,18.97
2022-07-29T02:03:49.947Z,18.93
2022-07-29T02:06:21.369Z,18.77
2022-07-29T02:08:54.355Z,18.79
2022-07-29T02:11:22.944Z,18.82
2022-07-29T02:13:54.020Z,18.84
2022-07-29T02:16:24.799Z,18.74
2022-07-29T02:18:55.968Z,18.69
2022-07-29T02:21:26.952Z,18.54
2022-07-29T02:23:56.873Z,18.47
2022-07-29T02:26:27.960Z,18.42
2022-07-29T02:28:59.965Z,18.35
2022-07-29T02:31:31.765Z,18.46
2022-07-29T02:34:02.675Z,18.58
2022-07-29T02:36:33.824Z,18.55
2022-07-29T02:39:04.396Z,18.66
2022-07-29T02:41:51.103Z,18.79
2022-07-29T02:44:24.311Z,18.90
2022-07-29T02:47:05.211Z,18.94
2022-07-29T02:49:53.682Z,19.02
2022-07-29T02:52:37.300Z,19.02
2022-07-29T02:55:20.906Z,19.10
2022-07-29T02:57:55.753Z,19.11
2022-07-29T03:00:27.749Z,19.01
2022-07-29T03:02:58.810Z,18.96
2022-07-29T03:05:28.837Z,18.94
2022-07-29T03:08:03.304Z,18.96
2022-07-29T03:10:32.516Z,18.84
2022-07-29T03:13:02.401Z,18.74
2022-07-29T03:15:31.343Z,18.70
2022-07-29T03:18:02.405Z,18.63
2022-07-29T03:20:31.165Z,18.69
2022-07-29T03:22:59.928Z,18.69
2022-07-29T03:25:28.492Z,18.75
2022-07-29T03:27:57.602Z,18.76
2022-07-29T03:30:27.964Z,18.67
2022-07-29T03:32:58.789Z,18.64
2022-07-29T03:35:32.118Z,18.75
2022-07-29T03:38:01.429Z,18.85
2022-07-29T03:40:44.740Z,18.90
2022-07-29T03:43:14.642Z,18.93
2022-07-29T03:45:46.249Z,18.89
2022-07-29T03:48:20.701Z,18.99
2022-07-29T03:50:49.935Z,19.10
2022-07-29T03:53:18.907Z,19.07
2022-07-29T03:55:53.169Z,18.98
2022-07-29T03:58:22.240Z,18.98
2022-07-29T04:00:51.845Z,19.07
2022-07-29T04:03:21.006Z,19.41
2022-07-29T04:06:01.362Z,19.97
2022-07-29T04:08:30.434Z,20.65
2022-07-29T04:10:59.586Z,22.24
2022-07-29T04:13:28.418Z,23.78
2022-07-29T04:15:57.281Z,24.41
2022-07-29T04:18:26.412Z,24.92
2022-07-29T04:20:56.232Z,25.71
2022-07-29T04:23:27.367Z,26.39
2022-07-29T04:25:59.476Z,26.67
2022-07-29T04:31:46.503Z,27.23
2022-07-29T04:34:17.495Z,26.92
2022-07-29T04:36:53.108Z,27.00
2022-07-29T04:39:23.393Z,27.60
2022-07-29T04:41:54.907Z,27.83
2022-07-29T04:44:28.386Z,26.58
2022-07-29T04:46:54.685Z,25.44
2022-07-29T04:49:23.558Z,24.29
2022-07-29T04:51:55.243Z,24.00
2022-07-29T04:54:23.971Z,23.48
2022-07-29T04:57:00.282Z,23.30
2022-07-29T04:59:28.904Z,22.85
2022-07-29T05:01:57.642Z,23.10
2022-07-29T05:04:27.989Z,23.24
2022-07-29T05:06:56.618Z,23.05
2022-07-29T05:09:27.215Z,22.89
2022-07-29T05:12:01.897Z,22.89
2022-07-29T05:14:48.977Z,23.01
2022-07-29T05:17:18.949Z,23.08
2022-07-29T05:19:48.351Z,22.99
2022-07-29T05:22:17.069Z,23.04
2022-07-29T05:24:48.257Z,23.24
2022-07-29T05:27:18.604Z,23.09
2022-07-29T05:29:47.522Z,23.22
2022-07-29T05:32:16.357Z,23.10
2022-07-29T05:34:50.190Z,23.17
2022-07-29T05:37:16.516Z,23.01
2022-07-29T05:39:48.841Z,23.25
2022-07-29T05:42:15.721Z,23.41
2022-07-29T05:44:44.488Z,23.63
2022-07-29T05:47:16.036Z,23.74
2022-07-29T05:49:47.425Z,23.70
2022-07-29T05:52:16.781Z,23.78
2022-07-29T05:54:47.367Z,23.55
2022-07-29T05:57:24.427Z,23.33
2022-07-29T05:59:53.884Z,23.00
2022-07-29T06:02:26.050Z,22.96
2022-07-29T06:05:02.826Z,22.73
2022-07-29T06:07:37.798Z,22.62
2022-07-29T06:10:23.939Z,22.82
2022-07-29T06:12:58.231Z,22.96
2022-07-29T06:15:41.563Z,23.15
2022-07-29T06:18:13.577Z,23.31
2022-07-29T06:20:42.927Z,23.38
2022-07-29T06:23:14.822Z,23.60
2022-07-29T06:25:43.895Z,23.69
2022-07-29T06:28:20.221Z,23.77
2022-07-29T06:30:53.393Z,23.69
2022-07-29T06:36:25.167Z,24.01
2022-07-29T06:39:02.804Z,24.18
2022-07-29T06:56:32.409Z,24.46
2022-07-29T06:59:13.166Z,24.25
2022-07-29T07:01:52.962Z,24.32
2022-07-29T07:04:36.747Z,24.57
2022-07-29T07:07:13.230Z,24.71
2022-07-29T07:09:46.498Z,24.89
2022-07-29T07:12:15.593Z,24.98
2022-07-29T07:20:50.437Z,25.31
2022-07-29T07:26:15.738Z,25.44
2022-07-29T07:28:59.271Z,25.47
2022-07-29T07:31:31.114Z,25.60
2022-07-29T07:34:10.886Z,25.60
2022-07-29T07:36:52.095Z,25.82
2022-07-29T07:39:33.454Z,25.85
2022-07-29T07:59:36.502Z,26.21
2022-07-29T08:02:24.812Z,26.13
2022-07-29T08:04:55.583Z,26.03
2022-07-29T08:07:24.617Z,26.26
2022-07-29T08:09:57.756Z,26.52
2022-07-29T08:12:29.474Z,26.36
2022-07-29T08:15:05.732Z,26.43
2022-07-29T08:18:08.797Z,26.51
2022-07-29T08:20:41.869Z,26.44
2022-07-29T08:24:00.655Z,26.74
2022-07-29T08:26:27.304Z,26.77
2022-07-29T08:29:25.987Z,27.09
2022-07-29T08:31:53.532Z,27.13
2022-07-29T08:40:20.055Z,27.54
2022-07-29T08:49:52.827Z,27.76
2022-07-29T09:01:42.760Z,28.50
2022-07-29T09:04:15.670Z,28.36
2022-07-29T09:06:56.490Z,28.23
2022-07-29T09:09:29.567Z,28.50
2022-07-29T09:12:01.761Z,28.74
2022-07-29T09:14:46.796Z,28.76
2022-07-29T09:17:22.943Z,28.65
2022-07-29T09:20:04.098Z,28.79
2022-07-29T09:22:42.262Z,28.82
2022-07-29T09:25:17.434Z,28.47
2022-07-29T09:30:36.109Z,28.77
2022-07-29T09:36:14.008Z,29.19
2022-07-29T09:39:02.822Z,29.35
2022-07-29T09:41:37.572Z,29.20
2022-07-29T09:44:16.051Z,29.36
2022-07-29T09:47:10.986Z,29.19
2022-07-29T09:50:01.290Z,29.42
2022-07-29T09:52:35.410Z,29.58
2022-07-29T09:55:20.288Z,29.38
2022-07-29T09:58:03.947Z,29.09
2022-07-29T10:00:56.056Z,29.37
2022-07-29T10:03:25.294Z,29.66
2022-07-29T10:06:14.661Z,29.51
2022-07-29T10:08:47.388Z,29.73
2022-07-29T10:11:22.489Z,29.73
2022-07-29T10:13:58.347Z,29.81
2022-07-29T10:16:31.869Z,29.49
2022-07-29T10:19:16.618Z,29.99
2022-07-29T10:21:57.737Z,30.22
2022-07-29T10:24:30.642Z,30.04
2022-07-29T10:27:04.270Z,30.24
2022-07-29T10:32:40.463Z,30.51
2022-07-29T10:35:38.126Z,30.54
2022-07-29T10:38:30.677Z,30.64
2022-07-29T10:41:32.024Z,30.46
2022-07-29T10:44:04.530Z,30.65
2022-07-29T10:46:39.151Z,30.89
2022-07-29T10:49:15.245Z,30.35
2022-07-29T10:52:01.133Z,30.56
2022-07-29T10:54:46.635Z,30.65
2022-07-29T10:57:16.734Z,30.64
2022-07-29T10:59:48.601Z,30.83
2022-07-29T11:02:51.027Z,30.77
2022-07-29T11:05:43.395Z,30.74
2022-07-29T11:08:29.143Z,30.91
2022-07-29T11:11:18.751Z,30.96
2022-07-29T11:14:07.601Z,30.95
2022-07-29T11:17:18.194Z,30.92
2022-07-29T11:19:55.989Z,31.00
2022-07-29T11:22:48.027Z,31.10
2022-07-29T11:25:50.221Z,31.40
2022-07-29T11:28:22.791Z,31.24
2022-07-29T11:30:58.918Z,31.02
2022-07-29T11:36:28.011Z,31.41
2022-07-29T11:39:10.097Z,31.19
2022-07-29T11:41:40.861Z,31.35
2022-07-29T11:44:26.738Z,31.04
2022-07-29T11:46:56.507Z,30.93
2022-07-29T11:49:44.522Z,31.23
2022-07-29T11:52:14.333Z,31.24
2022-07-29T11:54:58.195Z,31.90
2022-07-29T11:57:17.908Z,31.72
2022-07-29T11:59:54.366Z,31.87
2022-07-29T12:02:37.049Z,31.39
2022-07-29T12:05:22.272Z,31.69
2022-07-29T12:07:03.977Z,31.25
2022-07-29T12:07:52.424Z,31.88
2022-07-29T12:10:31.938Z,32.06
2022-07-29T12:13:09.057Z,32.25
2022-07-29T12:16:00.082Z,32.24
2022-07-29T12:18:35.364Z,32.15
2022-07-29T12:21:06.378Z,32.25
2022-07-29T12:23:38.737Z,32.23
2022-07-29T12:26:11.097Z,32.15
2022-07-29T12:28:43.930Z,32.30
2022-07-29T12:31:43.256Z,32.58
2022-07-29T12:34:01.200Z,32.71
2022-07-29T12:36:40.608Z,32.20
2022-07-29T12:39:17.915Z,32.00
2022-07-29T12:41:54.091Z,32.14
2022-07-29T12:44:31.229Z,32.15
2022-07-29T12:47:09.992Z,32.22
2022-07-29T12:52:55.522Z,32.23
2022-07-29T12:55:45.315Z,32.41
2022-07-29T12:58:14.122Z,32.78
2022-07-29T13:00:46.370Z,32.93
2022-07-29T13:03:18.920Z,33.18
2022-07-29T13:05:50.679Z,32.81
2022-07-29T13:08:40.395Z,32.75
2022-07-29T13:11:09.823Z,32.78
2022-07-29T13:20:08.482Z,32.53
2022-07-29T13:25:56.470Z,32.77
2022-07-29T13:28:28.472Z,32.66
2022-07-29T13:31:00.109Z,32.76
2022-07-29T13:33:33.247Z,32.47
2022-07-29T13:36:06.536Z,32.62
2022-07-29T13:38:38.572Z,32.22
2022-07-29T13:41:20.807Z,32.62
2022-07-29T13:43:59.444Z,32.69
2022-07-29T13:46:34.165Z,32.75
2022-07-29T13:49:12.660Z,32.49
2022-07-29T13:51:44.581Z,32.74
2022-07-29T13:54:20.860Z,32.76
2022-07-29T13:57:06.264Z,32.74
2022-07-29T13:59:39.530Z,32.72
2022-07-29T14:02:13.336Z,32.75
2022-07-29T14:05:20.730Z,32.86
2022-07-29T14:07:38.909Z,32.79
2022-07-29T14:10:09.959Z,33.08
2022-07-29T14:12:55.550Z,33.31
2022-07-29T14:15:30.763Z,33.31
2022-07-29T14:18:14.971Z,33.34
2022-07-29T14:20:52.433Z,33.41
2022-07-29T14:23:33.906Z,33.58
2022-07-29T14:26:13.195Z,33.74
2022-07-29T14:28:50.094Z,33.70
2022-07-29T14:31:27.753Z,34.30
2022-07-29T14:34:02.909Z,34.93
2022-07-29T14:36:40.222Z,35.73
2022-07-29T14:39:23.267Z,36.23
2022-07-29T14:41:59.960Z,36.24
2022-07-29T14:44:35.572Z,36.84
2022-07-29T14:47:12.964Z,37.28
2022-07-29T14:49:48.302Z,37.56
2022-07-29T14:52:26.021Z,37.83
2022-07-29T14:54:59.752Z,37.71
2022-07-29T14:57:36.114Z,37.90
2022-07-29T15:00:22.437Z,37.93
2022-07-29T15:06:03.879Z,38.91
2022-07-29T15:11:42.115Z,38.32
2022-07-29T15:14:31.474Z,38.03
2022-07-29T15:17:09.186Z,37.85
2022-07-29T15:25:45.364Z,37.53
2022-07-29T15:31:57.866Z,37.34
2022-07-29T15:34:50.542Z,37.92
2022-07-29T16:40:14.549Z,30.04
2022-07-29T16:42:47.045Z,30.51
2022-07-29T16:45:45.510Z,30.40
2022-07-29T16:48:11.917Z,30.31
2022-07-29T16:50:48.471Z,30.20
2022-07-29T16:53:19.346Z,30.19
2022-07-29T16:55:49.668Z,30.09
2022-07-29T16:58:28.663Z,29.99
2022-07-29T17:01:02.850Z,30.02
2022-07-29T17:03:45.822Z,30.15
2022-07-29T17:06:48.692Z,30.10
2022-07-29T17:09:19.689Z,29.79
2022-07-29T17:11:58.665Z,30.27
2022-07-29T17:14:36.013Z,30.32
2022-07-29T17:17:08.684Z,30.35
2022-07-29T17:19:49.102Z,30.47
2022-07-29T17:22:22.347Z,30.42
2022-07-29T17:25:20.965Z,30.26
2022-07-29T17:27:29.152Z,30.06
2022-07-29T17:36:54.103Z,29.43
2022-07-29T17:46:19.078Z,28.99
2022-07-29T17:48:52.731Z,28.84
2022-07-29T17:51:27.577Z,28.73
2022-07-29T17:54:01.702Z,28.51
2022-07-29T17:59:47.942Z,28.30
2022-07-29T18:02:34.060Z,28.22
2022-07-29T18:05:07.730Z,28.17
2022-07-29T18:07:53.903Z,27.96
2022-07-29T18:11:10.920Z,27.87
2022-07-29T18:13:21.067Z,27.77
2022-07-29T18:15:50.034Z,27.66
2022-07-29T18:18:23.243Z,27.58
2022-07-29T18:20:56.606Z,27.51
2022-07-29T18:23:26.690Z,27.45
2022-07-29T18:25:56.869Z,27.35
2022-07-29T18:28:26.553Z,27.31
2022-07-29T18:30:55.392Z,27.32
2022-07-29T18:33:24.107Z,27.30
2022-07-29T18:36:04.215Z,27.20
2022-07-29T18:38:25.602Z,27.15
2022-07-29T18:40:54.298Z,27.14
2022-07-29T18:43:25.918Z,27.06
2022-07-29T18:45:59.203Z,27.02
2022-07-29T18:48:27.907Z,27.00
2022-07-29T18:50:57.795Z,26.89
2022-07-29T18:53:26.432Z,26.90
2022-07-29T18:56:00.175Z,26.83
2022-07-29T18:58:30.172Z,26.79
2022-07-29T19:00:58.715Z,26.74
2022-07-29T19:03:32.925Z,26.75
2022-07-29T19:06:01.553Z,26.72
2022-07-29T19:08:30.191Z,26.74
2022-07-29T19:10:58.867Z,26.68
2022-07-29T19:13:27.518Z,26.69
2022-07-29T19:15:56.674Z,26.65
2022-07-29T19:18:27.277Z,26.63
2022-07-29T19:20:58.949Z,26.54
2022-07-29T19:23:27.880Z,26.53
2022-07-29T19:25:57.255Z,26.48
2022-07-29T19:28:26.909Z,26.45
2022-07-29T19:30:57.140Z,26.40
2022-07-29T19:33:25.875Z,26.33
2022-07-29T19:35:55.182Z,26.26
2022-07-29T19:38:27.252Z,26.19
2022-07-29T19:40:56.628Z,26.10
2022-07-29T19:43:51.084Z,26.12
2022-07-29T19:45:58.720Z,26.03
2022-07-29T19:48:30.738Z,26.02
2022-07-29T19:50:59.307Z,25.96
2022-07-29T19:53:29.634Z,26.01
2022-07-29T19:55:58.459Z,25.59
2022-07-29T19:58:27.463Z,25.91
2022-07-29T20:00:57.177Z,25.89
2022-07-29T20:03:25.922Z,25.86
2022-07-29T20:05:54.976Z,25.82
2022-07-29T20:08:23.811Z,25.81
2022-07-29T20:10:52.618Z,25.76
2022-07-29T20:13:24.314Z,25.67
2022-07-29T20:15:54.101Z,25.67
2022-07-29T20:18:22.954Z,25.66
2022-07-29T20:20:53.989Z,25.59
2022-07-29T20:23:25.792Z,25.52
2022-07-29T20:25:55.248Z,25.46
2022-07-29T20:28:27.476Z,25.49
2022-07-29T20:30:56.242Z,25.40
2022-07-29T20:33:24.919Z,25.35
2022-07-29T20:35:56.824Z,25.33
2022-07-29T20:38:25.511Z,25.25
2022-07-29T20:40:55.794Z,25.21
2022-07-29T20:43:29.760Z,25.22
2022-07-29T20:46:00.172Z,25.21
2022-07-29T20:48:28.801Z,25.13
2022-07-29T20:50:59.818Z,25.09
2022-07-29T20:53:28.400Z,25.04
2022-07-29T20:55:57.052Z,25.01
2022-07-29T20:58:26.988Z,25.00
2022-07-29T21:00:56.459Z,24.99
2022-07-29T21:03:25.148Z,24.95
2022-07-29T21:05:53.833Z,24.95
2022-07-29T21:08:22.682Z,24.90
2022-07-29T21:10:52.639Z,24.87
2022-07-29T21:13:24.128Z,24.82
2022-07-29T21:15:54.861Z,24.78
2022-07-29T21:18:34.213Z,24.75
2022-07-29T21:21:03.723Z,24.70
2022-07-29T21:23:32.530Z,24.61
2022-07-29T21:26:01.269Z,24.61
2022-07-29T21:28:33.313Z,24.61
2022-07-29T21:31:03.649Z,24.56
2022-07-29T21:33:33.600Z,24.52
2022-07-29T21:38:34.827Z,24.49
2022-07-29T21:41:04.022Z,24.40
2022-07-29T21:43:33.410Z,24.38
2022-07-29T21:46:02.404Z,24.31
2022-07-29T21:48:31.080Z,24.34
2022-07-29T21:51:01.173Z,24.27
2022-07-29T21:53:30.684Z,24.25
2022-07-29T21:56:00.303Z,24.27
2022-07-29T21:58:29.079Z,24.23
2022-07-29T22:00:57.881Z,24.23
2022-07-29T22:03:26.671Z,24.13
2022-07-29T22:05:56.183Z,24.07
2022-07-29T22:08:27.145Z,24.06
2022-07-29T22:10:55.882Z,23.96
2022-07-29T22:13:24.492Z,23.96
2022-07-29T22:15:53.112Z,23.88
2022-07-29T22:18:21.749Z,23.84
2022-07-29T22:20:55.957Z,23.78
2022-07-29T22:23:24.322Z,23.79
2022-07-29T22:25:56.175Z,23.79
2022-07-29T22:28:28.888Z,23.74
2022-07-29T22:30:57.771Z,23.68
2022-07-29T22:33:29.304Z,23.70
2022-07-29T22:35:57.999Z,23.73
2022-07-29T22:38:27.256Z,23.69
2022-07-29T22:41:00.695Z,23.70
2022-07-29T22:43:26.323Z,23.70
2022-07-29T22:45:55.044Z,23.67
2022-07-29T22:48:23.714Z,23.65
2022-07-29T22:50:52.441Z,23.63
2022-07-29T22:53:21.136Z,23.66
2022-07-29T22:55:49.762Z,23.67
2022-07-29T22:58:18.454Z,23.62
2022-07-29T23:00:47.158Z,23.59
2022-07-29T23:03:21.521Z,23.57
2022-07-29T23:05:57.839Z,23.60
2022-07-29T23:08:32.105Z,23.59
2022-07-29T23:11:04.380Z,23.56
2022-07-29T23:13:33.100Z,23.52
2022-07-29T23:16:02.953Z,23.52
2022-07-29T23:18:31.659Z,23.47
2022-07-29T23:21:00.345Z,23.46
2022-07-29T23:23:32.452Z,23.42
2022-07-29T23:25:59.476Z,23.37
2022-07-29T23:28:30.776Z,23.34
2022-07-29T23:30:59.506Z,23.34
2022-07-29T23:33:28.081Z,23.35
2022-07-29T23:35:56.711Z,23.40
2022-07-29T23:38:25.306Z,23.39
2022-07-29T23:40:53.994Z,23.34
2022-07-29T23:43:22.661Z,23.27
2022-07-29T23:45:53.655Z,23.23
2022-07-29T23:48:22.669Z,23.19
2022-07-29T23:51:00.491Z,23.19
2022-07-29T23:53:29.801Z,23.19
2022-07-29T23:55:58.613Z,23.14
2022-07-29T23:58:27.643Z,23.12
